GMT,Max TemperatureF,Mean TemperatureF,Min TemperatureF,Max Dew PointF,MeanDew PointF,Min DewpointF,Max Humidity, Mean Humidity, Min Humidity, Max Sea Level PressureIn, Mean Sea Level PressureIn, Min Sea Level PressureIn, Max VisibilityMiles, Mean VisibilityMiles, Min VisibilityMiles, Max Wind SpeedMPH, Mean Wind SpeedMPH, Max Gust SpeedMPH,PrecipitationIn, CloudCover, Events, WindDirDegrees
2012-11-1,44,37,30,41,36,30,100,89,70,28.80,28.73,28.68,6,4,0,20,5,,0.00,5,Fog-Rain,214
2012-11-2,46,39,32,41,37,30,100,83,71,29.18,28.91,28.68,6,6,3,22,12,32,0.00,4,Rain,256
2012-11-3,44,38,32,37,35,30,100,86,70,29.24,29.20,29.15,6,6,4,12,6,,0.00,4,Rain,127
2012-11-4,44,37,28,39,35,27,100,90,81,29.62,29.39,29.24,6,6,3,12,7,,0.00,4,Fog-Rain,70
2012-11-5,48,37,26,41,33,27,100,88,66,29.98,29.82,29.65,6,4,0,8,3,,0.00,3,Fog,255
2012-11-6,53,43,33,48,44,32,93,86,76,30.06,29.98,29.92,6,6,1,17,9,23,0.00,6,Rain,253
2012-11-7,51,50,48,48,46,43,94,88,82,30.06,29.94,29.83,6,5,2,24,14,28,0.00,7,Rain,243
2012-11-8,51,48,46,46,44,41,93,85,71,29.95,29.86,29.71,6,6,5,18,13,29,0.00,5,Rain,251
2012-11-9,50,46,41,46,43,37,93,86,76,29.68,29.45,29.30,6,6,3,21,16,30,0.00,4,Rain,228
2012-11-10,46,39,32,45,39,32,100,90,81,29.47,29.31,29.24,6,6,4,14,9,,0.00,5,Fog-Rain,217
2012-11-11,46,40,33,39,36,32,100,88,71,29.98,29.79,29.50,6,6,6,8,5,,0.00,1,Rain,252
2012-11-12,55,45,35,54,45,34,100,94,88,29.95,29.87,29.80,6,5,2,20,7,,0.00,6,Rain,81
2012-11-13,57,52,46,54,50,46,100,90,77,30.09,29.96,29.89,6,6,2,23,12,36,0.00,5,Rain,203
2012-11-14,48,42,37,48,45,36,100,96,93,30.24,30.17,30.09,6,4,1,7,3,,0.00,5,Fog-Rain,255
2012-11-15,50,44,37,50,43,36,100,96,87,30.24,30.09,29.95,6,2,0,16,5,,0.00,7,Fog-Rain,181
2012-11-16,46,45,44,43,42,39,93,88,81,29.95,29.81,29.68,6,6,3,14,6,,0.00,6,Rain,202
2012-11-17,46,40,35,43,38,34,100,89,76,29.68,29.63,29.59,6,6,5,21,8,32,0.00,4,Rain,237
2012-11-18,46,40,35,41,37,34,93,87,76,29.80,29.75,29.59,6,6,5,14,7,,0.00,4,Rain,197
2012-11-19,55,48,42,52,48,39,100,89,76,29.59,29.36,29.27,6,5,2,28,16,43,0.00,6,Rain,193
2012-11-20,55,50,46,52,46,39,94,83,66,29.56,29.42,29.30,6,6,2,26,11,40,0.00,5,Rain,179
2012-11-21,48,44,41,45,40,37,93,84,76,29.68,29.64,29.56,6,6,6,15,9,,0.00,3,Rain,136
2012-11-22,51,46,42,48,43,39,94,87,81,29.59,29.34,29.27,6,6,4,18,11,31,0.00,5,Rain,180
2012-11-23,46,40,35,41,38,34,93,84,76,29.83,29.60,29.30,6,6,5,21,11,,0.00,4,Rain,232
2012-11-24,39,34,30,36,33,30,100,93,87,29.95,29.86,29.65,6,6,4,8,4,,0.00,1,Rain,62
2012-11-25,42,36,30,41,36,30,100,94,87,29.65,29.56,29.50,6,5,1,10,5,,0.00,6,Fog-Rain,306
2012-11-26,44,37,30,36,34,30,100,80,66,29.86,29.75,29.65,6,6,2,10,4,,0.00,1,Fog,336
2012-11-27,46,39,32,36,32,28,93,75,62,30.09,29.99,29.86,6,6,6,13,6,,0.00,1,,325
2012-11-28,41,32,24,32,28,23,100,83,65,30.15,30.12,30.09,6,6,6,8,4,,0.00,1,,274
2012-11-29,37,30,23,30,26,21,100,91,75,30.09,29.96,29.86,6,6,3,5,1,,0.00,1,,293
2012-11-30,35,29,23,36,29,23,100,95,87,29.92,29.87,29.83,6,4,0,6,1,,0.00,4,Fog-Rain,272